Tilston, United Kingdom

10:52 PM BST on June 24, 2017 (GMT +0100)
Carden | | Change Station

Elev 114 ft 53.07 °N, 2.81 °W | Updated 5 minutes ago

Overcast
Overcast
59.0 °F
Feels Like 59.0 °F
N
9.9
Wind Variable Wind from WNW
Gusts 13.7 mph

Today
High -- | Low -- °F
--% Chance of Precip.
Yesterday
High -- | Low -- °F
Precip. -- in
Pressure 29.83 in
Visibility 6.2 miles
Clouds Few 2000 ft
Scattered Clouds 2900 ft
Mostly Cloudy 4400 ft
Dew Point 53 °F
Humidity 80%
Rainfall Not available.
Snow Depth Not available.
4:45 AM 9:41 PM
New Moon, 1% visible
METAR EGGP 242120Z 26010KT 9999 VCSH FEW020 SCT029 BKN044 16/13 Q1010
Pressure 29.83 in
Visibility 6.2 miles
Clouds Few 2000 ft
Scattered Clouds 2900 ft
Mostly Cloudy 4400 ft
Dew Point 53 °F
Humidity 80%
Rainfall Not available.
Snow Depth Not available.
4:45 AM 9:41 PM
New Moon, 1% visible
METAR EGGP 242120Z 26010KT 9999 VCSH FEW020 SCT029 BKN044 16/13 Q1010

Get Severe Weather Alerts

Thanks for signing up!

Be on the lookout for a verification email in your inbox.

You'll start receiving the daily forecast at 6 AM.

×

10-Day Weather Forecast

×

Almanac

Astronomy

Jun. 24, 2017 Rise Set
Actual Time
Civil Twilight
Nautical Twilight
Astronomical Twilight
Moon
Length of Visible Light
Length of Day
Tomorrow will be .
, % of the Moon is Illuminated

Today's Extremes

Country Highs Country Lows

Community

WunderPhotos

Category 6

Welcome to Category 6. This is the collective home for Weather Underground's featured writeups by Dr. Jeff Masters (right), Bob Henson (left), Chris Burt, and other regular contributors.

Nearby

Air Quality

  Air Quality AQ Index Pollutant
Not available.

Snow Depth

Station Depth Elevation

Earthquake Activity

City Distance Mag. Time & Date
Minimum magnitude displayed is 2.5.

Coastal Water Temperatures

Place Temperature

Stations

Nearby Weather Stations

Station Location Temp. Windchill Dew Point Humidity Wind Precip. Elev Updated Type